Flight Track Log - Related Links

Times and Time Zones

All times are in EDT time to prevent confusion due to time zone crossing. See the GLA30F flight status page for this flight to view local times or setup timezone preferences in your user account.

Time Position Orientation Groundspeed Altitude Reporting Facility
EDT Latitude Longitude Course Direction KTS MPH feet Rate Location/Type
Thu 10:39:02 PM 39.8333 -104.7833 247° West 201 231 7,700  Level Denver TRACON
Thu 10:40:06 PM 39.8111 -104.8619 250° West 205 236 9,500 1,619 Climbing Denver Center
Thu 10:41:08 PM 39.7939 -104.9406 254° West 210 242 11,100 1,561 Climbing Denver Center
Thu 10:42:09 PM 39.7764 -105.0175 254° West 220 253 12,700 1,610 Climbing Denver Center
Thu 10:43:11 PM 39.7497 -105.0914 245° Southwest 224 258 14,400 1,645 Climbing Denver Center
Thu 10:44:00 PM 39.6813 -105.1394 247° West  Level FlightAware Approximate
Thu 10:44:13 PM 39.7194 -105.1733 244° Southwest 233 268 16,100  Level Denver Center
Thu 10:45:14 PM 39.6908 -105.2519 245° Southwest 241 277 17,300 976 Climbing Denver Center
Thu 10:46:16 PM 39.6583 -105.3278 241° Southwest 242 278 18,100 823 Climbing Denver Center
Thu 10:47:18 PM 39.6256 -105.4158 244° Southwest 252 290 19,000 878 Climbing Denver Center
Thu 10:48:19 PM 39.5947 -105.4989 244° Southwest 254 292 19,900 488 Climbing Denver Center
Thu 10:49:21 PM 39.5606 -105.5939 245° Southwest 272 313 20,000 49 Climbing Denver Center
Thu 10:50:22 PM 39.5289 -105.6886 247° West 287 330 20,000 -49 Level Denver Center
Thu 10:51:24 PM 39.4953 -105.7833 245° Southwest 291 335 19,900 -48 Descending Denver Center
Thu 10:52:26 PM 39.4689 -105.8711 249° West 284 327 19,900 49 Level Denver Center
Thu 10:53:27 PM 39.4406 -105.9678 249° West 287 330 20,000  Climbing Denver Center
Thu 10:54:29 PM 39.4022 -106.0828 247° West 288 331 19,900  Descending Denver Center
Thu 10:55:31 PM 39.3722 -106.1789 248° West 289 333 20,000 49 Climbing Denver Center
Thu 10:56:32 PM 39.3297 -106.2375 227° Southwest 290 334 20,000  Level Denver Center
Thu 10:57:34 PM 39.2475 -106.3078 214° Southwest 293 337 20,000  Level Denver Center
Thu 10:58:36 PM 39.1797 -106.3681 215° Southwest 293 337 20,000  Level Denver Center
Thu 10:59:37 PM 39.1139 -106.4294 216° Southwest 291 335 20,000  Level Denver Center
Thu 11:00:39 PM 39.0464 -106.4864 213° Southwest 290 334 20,000  Level Denver Center
Thu 11:01:40 PM 38.9803 -106.5444 214° Southwest 287 330 20,000  Level Denver Center
Thu 11:02:42 PM 38.9161 -106.6075 217° Southwest 287 330 20,000 -49 Level Denver Center
Thu 11:03:43 PM 38.8531 -106.6717 218° Southwest 287 330 19,900  Descending Denver Center
Thu 11:04:45 PM 38.7886 -106.7356 218° Southwest 290 334 20,000 49 Climbing Denver Center
Thu 11:05:46 PM 38.7142 -106.8175 221° Southwest 292 336 20,000 49 Level Denver Center
Thu 11:06:48 PM 38.6453 -106.8733 212° Southwest 292 336 20,100  Climbing Denver Center
Thu 11:07:49 PM 38.5761 -106.9281 212° Southwest 292 336 20,000 -49 Descending Denver Center
Thu 11:08:50 PM 38.5233 -106.9750 215° Southwest 290 334 20,000 -49 Level Denver Center
Thu 11:09:52 PM 38.4411 -107.0425 213° Southwest 290 334 19,900  Descending Denver Center
Thu 11:10:53 PM 38.3817 -107.0789 206° Southwest 295 339 20,000 49 Climbing Denver Center
Thu 11:11:55 PM 38.2953 -107.1353 207° Southwest 290 334 20,000 -49 Level Denver Center
Thu 11:12:56 PM 38.2375 -107.1733 207° Southwest 292 336 19,900  Descending Denver Center
Thu 11:13:58 PM 38.1389 -107.2342 206° Southwest 291 335 20,000  Climbing Denver Center
Thu 11:14:59 PM 38.0767 -107.2694 204° Southwest 292 336 19,900  Descending Denver Center
Thu 11:16:01 PM 37.9950 -107.3211 207° Southwest 292 336 20,000  Climbing Denver Center
Thu 11:17:02 PM 37.9136 -107.3706 206° Southwest 290 334 19,900  Descending Denver Center
Thu 11:18:04 PM 37.8439 -107.4117 205° Southwest 289 333 20,000 97 Climbing Denver Center
Thu 11:19:06 PM 37.7644 -107.4617 206° Southwest 285 328 20,100  Climbing Denver Center
Thu 11:20:07 PM 37.6967 -107.5075 208° Southwest 288 331 20,000 -244 Descending Denver Center
Thu 11:21:09 PM 37.6278 -107.5472 205° Southwest 285 328 19,600 -585 Descending Denver Center
Thu 11:22:10 PM 37.5483 -107.5964 206° Southwest 285 328 18,800 -927 Descending Denver Center
Thu 11:23:12 PM 37.4825 -107.6381 207° Southwest 277 319 17,700 -1,024 Descending Denver Center
Thu 11:24:13 PM 37.4072 -107.6858 207° Southwest 272 313 16,700 -984 Descending Denver Center
Thu 11:25:14 PM 37.3453 -107.7292 209° Southwest 268 308 15,700 -1,024 Descending Denver Center
Thu 11:26:16 PM 37.2808 -107.7644 204° Southwest 265 305 14,600 -823 Descending Denver Center
Thu 11:27:18 PM 37.2100 -107.8144 209° Southwest 262 302 14,000 -293 Descending Denver Center
Thu 11:28:19 PM 37.1464 -107.8567 208° Southwest 266 306 14,000 -98 Level Denver Center
Thu 11:29:21 PM 37.0717 -107.9053 207° Southwest 269 310 13,800 -488 Descending Denver Center
Thu 11:30:22 PM 37.0197 -107.9356 205° Southwest 264 304 13,000 -1,122 Descending Denver Center
Thu 11:31:24 PM 36.9486 -107.9797 206° Southwest 259 298 11,500 -1,610 Descending Denver Center
Thu 11:32:25 PM 36.8794 -108.0219 206° Southwest 252 290 9,700 -1,317 Descending Denver Center
Thu 11:33:27 PM 36.8256 -108.0603 210° Southwest 242 278 8,800 -1,024 Descending Denver Center
Thu 11:34:28 PM 36.7669 -108.0992 208° Southwest 224 258 7,600 -927 Descending Denver Center
Thu 11:35:30 PM 36.7458 -108.1336 233° Southwest 183 211 6,900 -780 Descending Denver Center
Thu 11:36:31 PM 36.7419 -108.1883 265° West 150 173 6,000 -885 Descending Denver Center

Login

Don't have an account? Register now (free) for customized features, flight alerts, and more!